Time,TemperatureF,DewpointF,PressureIn,WindDirection,WindDirectionDegrees,WindSpeedMPH,WindSpeedGustMPH,Humidity,HourlyPrecipIn,Conditions,Clouds,dailyrainin,SoftwareType,DateUTC
2013-11-02 00:00:00,38.8,36.7,29.73,North,355,0.0,2.0,92,0.00,,,0.37,WeatherCatV1.23B16,2013-11-02 04:00:00,
2013-11-02 00:05:00,38.6,36.5,29.73,WNW,300,2.0,4.0,92,0.00,,,0.00,WeatherCatV1.23B16,2013-11-02 04:05:00,
2013-11-02 00:10:00,38.5,36.4,29.73,WNW,300,0.0,1.0,92,0.00,,,0.00,WeatherCatV1.23B16,2013-11-02 04:10:00,
2013-11-02 00:15:00,38.3,36.2,29.74,NW,304,0.0,3.0,92,0.00,,,0.00,WeatherCatV1.23B16,2013-11-02 04:15:00,
2013-11-02 00:20:00,38.0,35.9,29.74,NW,304,3.0,3.0,92,0.00,,,0.00,WeatherCatV1.23B16,2013-11-02 04:20:00,
2013-11-02 00:25:00,37.9,35.8,29.74,NW,304,0.0,0.0,92,0.00,,,0.00,WeatherCatV1.23B16,2013-11-02 04:25:00,
2013-11-02 00:30:00,37.6,35.5,29.74,NW,310,0.0,5.0,92,0.00,,,0.00,WeatherCatV1.23B16,2013-11-02 04:30:00,
2013-11-02 00:35:00,37.3,35.2,29.74,NW,310,0.0,0.0,92,0.00,,,0.00,WeatherCatV1.23B16,2013-11-02 04:35:00,
2013-11-02 00:40:00,37.0,34.9,29.74,NW,306,0.0,5.0,92,0.00,,,0.00,WeatherCatV1.23B16,2013-11-02 04:40:00,
2013-11-02 00:45:00,36.9,34.8,29.74,NW,307,0.0,0.0,92,0.00,,,0.00,WeatherCatV1.23B16,2013-11-02 04:45:00,
2013-11-02 00:50:00,36.6,34.5,29.74,NW,307,0.0,1.0,92,0.00,,,0.00,WeatherCatV1.23B16,2013-11-02 04:50:00,
2013-11-02 00:55:00,36.5,34.7,29.74,NW,307,0.0,2.0,93,0.00,,,0.00,WeatherCatV1.23B16,2013-11-02 04:55:00,
2013-11-02 01:00:00,36.3,34.5,29.74,NW,307,0.0,0.0,93,0.00,,,0.00,WeatherCatV1.23B16,2013-11-02 05:00:00,
2013-11-02 01:05:00,36.3,34.5,29.74,NW,307,0.0,1.0,93,0.00,,,0.00,WeatherCatV1.23B16,2013-11-02 05:05:00,
2013-11-02 01:10:00,36.2,34.6,29.75,NW,307,1.0,1.0,94,0.00,,,0.00,WeatherCatV1.23B16,2013-11-02 05:10:00,
2013-11-02 01:15:00,36.0,34.4,29.75,NW,307,0.0,2.0,94,0.00,,,0.00,WeatherCatV1.23B16,2013-11-02 05:15:00,
2013-11-02 01:20:00,36.0,34.4,29.75,NW,312,0.0,3.0,94,0.00,,,0.00,WeatherCatV1.23B16,2013-11-02 05:20:00,
2013-11-02 01:25:00,36.0,34.4,29.75,NW,312,0.0,0.0,94,0.00,,,0.00,WeatherCatV1.23B16,2013-11-02 05:25:00,
2013-11-02 01:30:00,36.2,34.9,29.75,NW,312,0.0,3.0,95,0.00,,,0.00,WeatherCatV1.23B16,2013-11-02 05:30:00,
2013-11-02 01:35:00,36.3,35.0,29.75,NW,312,0.0,3.0,95,0.00,,,0.00,WeatherCatV1.23B16,2013-11-02 05:35:00,
2013-11-02 01:40:00,36.5,35.2,29.75,NW,312,0.0,0.0,95,0.00,,,0.00,WeatherCatV1.23B16,2013-11-02 05:40:00,
2013-11-02 01:45:00,36.5,35.2,29.76,NW,312,2.0,2.0,95,0.00,,,0.00,WeatherCatV1.23B16,2013-11-02 05:45:00,
2013-11-02 01:50:00,36.5,35.2,29.76,NW,312,1.0,3.0,95,0.00,,,0.00,WeatherCatV1.23B16,2013-11-02 05:50:00,
2013-11-02 01:55:00,36.5,35.2,29.76,NW,312,1.0,2.0,95,0.00,,,0.00,WeatherCatV1.23B16,2013-11-02 05:55:00,
2013-11-02 02:00:00,36.5,35.5,29.76,NW,312,0.0,1.0,96,0.00,,,0.00,WeatherCatV1.23B16,2013-11-02 06:00:00,
2013-11-02 02:05:00,36.5,35.2,29.76,NW,312,0.0,2.0,95,0.00,,,0.00,WeatherCatV1.23B16,2013-11-02 06:05:00,
2013-11-02 02:10:00,36.3,35.3,29.76,NW,312,1.0,4.0,96,0.00,,,0.00,WeatherCatV1.23B16,2013-11-02 06:10:00,
2013-11-02 02:15:00,36.3,35.3,29.76,NW,312,0.0,0.0,96,0.00,,,0.00,WeatherCatV1.23B16,2013-11-02 06:15:00,
2013-11-02 02:20:00,36.3,35.3,29.76,NW,312,0.0,0.0,96,0.00,,,0.00,WeatherCatV1.23B16,2013-11-02 06:20:00,
2013-11-02 02:25:00,36.5,35.5,29.76,NW,312,2.0,2.0,96,0.00,,,0.00,WeatherCatV1.23B16,2013-11-02 06:25:00,
2013-11-02 02:30:00,36.5,35.5,29.77,NW,312,0.0,4.0,96,0.00,,,0.00,WeatherCatV1.23B16,2013-11-02 06:30:00,
2013-11-02 02:35:00,36.5,35.5,29.77,NW,312,3.0,3.0,96,0.00,,,0.00,WeatherCatV1.23B16,2013-11-02 06:35:00,
2013-11-02 02:40:00,36.2,35.2,29.77,NW,312,1.0,1.0,96,0.00,,,0.00,WeatherCatV1.23B16,2013-11-02 06:40:00,
2013-11-02 02:45:00,36.0,35.0,29.77,NW,312,0.0,2.0,96,0.00,,,0.00,WeatherCatV1.23B16,2013-11-02 06:45:00,
2013-11-02 02:50:00,35.8,34.8,29.77,NW,312,0.0,1.0,96,0.00,,,0.00,WeatherCatV1.23B16,2013-11-02 06:50:00,
2013-11-02 02:55:00,35.5,34.5,29.78,NW,312,0.0,3.0,96,0.00,,,0.00,WeatherCatV1.23B16,2013-11-02 06:55:00,
2013-11-02 03:00:00,35.0,34.0,29.78,NW,310,2.0,3.0,96,0.00,,,0.00,WeatherCatV1.23B16,2013-11-02 07:00:00,
2013-11-02 03:05:00,34.7,33.7,29.78,NW,311,1.0,3.0,96,0.00,,,0.00,WeatherCatV1.23B16,2013-11-02 07:05:00,
2013-11-02 03:10:00,34.4,33.4,29.78,NW,309,0.0,3.0,96,0.00,,,0.00,WeatherCatV1.23B16,2013-11-02 07:10:00,
2013-11-02 03:15:00,34.3,33.3,29.78,WNW,298,5.0,6.0,96,0.00,,,0.00,WeatherCatV1.23B16,2013-11-02 07:15:00,
2013-11-02 03:20:00,34.1,33.1,29.79,WNW,296,0.0,2.0,96,0.00,,,0.00,WeatherCatV1.23B16,2013-11-02 07:20:00,
2013-11-02 03:25:00,33.8,32.8,29.79,WNW,302,0.0,2.0,96,0.00,,,0.00,WeatherCatV1.23B16,2013-11-02 07:25:00,
2013-11-02 03:30:00,33.7,32.7,29.79,NW,304,0.0,1.0,96,0.00,,,0.00,WeatherCatV1.23B16,2013-11-02 07:30:00,
2013-11-02 03:35:00,33.5,32.5,29.79,NW,304,2.0,3.0,96,0.00,,,0.00,WeatherCatV1.23B16,2013-11-02 07:35:00,
2013-11-02 03:40:00,33.4,32.4,29.79,NW,308,0.0,3.0,96,0.00,,,0.00,WeatherCatV1.23B16,2013-11-02 07:40:00,
2013-11-02 03:45:00,33.2,32.2,29.79,NW,315,0.0,0.0,96,0.00,,,0.00,WeatherCatV1.23B16,2013-11-02 07:45:00,
2013-11-02 03:50:00,33.1,32.1,29.80,NW,315,0.0,2.0,96,0.00,,,0.00,WeatherCatV1.23B16,2013-11-02 07:50:00,
2013-11-02 03:55:00,32.9,31.9,29.80,NW,315,0.0,0.0,96,0.00,,,0.00,WeatherCatV1.23B16,2013-11-02 07:55:00,
2013-11-02 04:00:00,32.8,31.8,29.80,NW,315,0.0,1.0,96,0.00,,,0.00,WeatherCatV1.23B16,2013-11-02 08:00:00,
2013-11-02 04:05:00,32.7,31.7,29.80,NW,316,0.0,0.0,96,0.00,,,0.00,WeatherCatV1.23B16,2013-11-02 08:05:00,
2013-11-02 04:10:00,32.5,31.5,29.80,NW,316,0.0,0.0,96,0.00,,,0.00,WeatherCatV1.23B16,2013-11-02 08:10:00,
2013-11-02 04:15:00,32.5,31.5,29.80,NW,316,0.0,0.0,96,0.00,,,0.00,WeatherCatV1.23B16,2013-11-02 08:15:00,
2013-11-02 04:20:00,32.4,31.4,29.80,NW,316,0.0,0.0,96,0.00,,,0.00,WeatherCatV1.23B16,2013-11-02 08:20:00,
2013-11-02 04:25:00,32.2,31.2,29.80,NW,316,0.0,0.0,96,0.00,,,0.00,WeatherCatV1.23B16,2013-11-02 08:25:00,
2013-11-02 04:30:00,31.9,30.9,29.80,NW,316,0.0,0.0,96,0.00,,,0.00,WeatherCatV1.23B16,2013-11-02 08:30:00,
2013-11-02 04:35:00,31.8,30.8,29.81,NW,316,0.0,0.0,96,0.00,,,0.00,WeatherCatV1.23B16,2013-11-02 08:35:00,
2013-11-02 04:40:00,31.6,30.6,29.81,NW,316,0.0,0.0,96,0.00,,,0.00,WeatherCatV1.23B16,2013-11-02 08:40:00,
2013-11-02 04:45:00,31.5,30.5,29.81,NW,316,0.0,0.0,96,0.00,,,0.00,WeatherCatV1.23B16,2013-11-02 08:45:00,
2013-11-02 04:50:00,31.3,30.3,29.81,NW,316,0.0,0.0,96,0.00,,,0.00,WeatherCatV1.23B16,2013-11-02 08:50:00,
2013-11-02 04:55:00,31.3,30.5,29.81,NW,316,0.0,0.0,97,0.00,,,0.00,WeatherCatV1.23B16,2013-11-02 08:55:00,
2013-11-02 05:00:00,31.2,30.5,29.81,NW,316,0.0,0.0,97,0.00,,,0.00,WeatherCatV1.23B16,2013-11-02 09:00:00,
2013-11-02 05:05:00,31.3,30.5,29.82,NW,316,0.0,0.0,97,0.00,,,0.00,WeatherCatV1.23B16,2013-11-02 09:05:00,
2013-11-02 05:10:00,31.3,30.5,29.82,NW,316,0.0,0.0,97,0.00,,,0.00,WeatherCatV1.23B16,2013-11-02 09:10:00,
2013-11-02 05:15:00,31.3,30.5,29.82,NW,316,0.0,1.0,97,0.00,,,0.00,WeatherCatV1.23B16,2013-11-02 09:15:00,
2013-11-02 05:20:00,31.3,30.5,29.83,NW,316,0.0,0.0,97,0.00,,,0.00,WeatherCatV1.23B16,2013-11-02 09:20:00,
2013-11-02 05:25:00,31.5,30.8,29.83,NW,316,0.0,3.0,97,0.00,,,0.00,WeatherCatV1.23B16,2013-11-02 09:25:00,
2013-11-02 05:30:00,31.5,30.8,29.83,NW,316,0.0,0.0,97,0.00,,,0.00,WeatherCatV1.23B16,2013-11-02 09:30:00,
2013-11-02 05:35:00,31.5,30.8,29.83,NW,316,0.0,0.0,97,0.00,,,0.00,WeatherCatV1.23B16,2013-11-02 09:35:00,
2013-11-02 05:40:00,31.8,31.0,29.83,NW,316,0.0,0.0,97,0.00,,,0.00,WeatherCatV1.23B16,2013-11-02 09:40:00,
2013-11-02 05:45:00,31.8,31.0,29.83,NW,316,1.0,1.0,97,0.00,,,0.00,WeatherCatV1.23B16,2013-11-02 09:45:00,
2013-11-02 05:50:00,31.9,31.1,29.83,NW,316,0.0,0.0,97,0.00,,,0.00,WeatherCatV1.23B16,2013-11-02 09:50:00,
2013-11-02 05:55:00,31.9,31.1,29.84,NW,316,0.0,0.0,97,0.00,,,0.00,WeatherCatV1.23B16,2013-11-02 09:55:00,
2013-11-02 06:00:00,31.9,31.1,29.84,NW,316,0.0,0.0,97,0.00,,,0.00,WeatherCatV1.23B16,2013-11-02 10:00:00,
2013-11-02 06:05:00,32.1,31.6,29.84,NNW,344,1.0,5.0,98,0.00,,,0.00,WeatherCatV1.23B16,2013-11-02 10:05:00,
2013-11-02 06:10:00,32.2,31.7,29.84,NNW,344,0.0,1.0,98,0.00,,,0.00,WeatherCatV1.23B16,2013-11-02 10:10:00,
2013-11-02 06:15:00,32.2,31.5,29.84,NNW,344,0.0,0.0,97,0.00,,,0.00,WeatherCatV1.23B16,2013-11-02 10:15:00,
2013-11-02 06:20:00,32.4,31.9,29.85,NNW,344,0.0,0.0,98,0.00,,,0.00,WeatherCatV1.23B16,2013-11-02 10:20:00,
2013-11-02 06:25:00,32.2,31.7,29.85,NNW,344,0.0,0.0,98,0.00,,,0.00,WeatherCatV1.23B16,2013-11-02 10:25:00,
2013-11-02 06:30:00,32.2,31.7,29.85,NNW,344,0.0,0.0,98,0.00,,,0.00,WeatherCatV1.23B16,2013-11-02 10:30:00,
2013-11-02 06:35:00,32.4,31.9,29.85,NNW,344,0.0,1.0,98,0.00,,,0.00,WeatherCatV1.23B16,2013-11-02 10:35:00,
2013-11-02 06:40:00,32.4,31.9,29.86,NNW,344,0.0,0.0,98,0.00,,,0.00,WeatherCatV1.23B16,2013-11-02 10:40:00,
2013-11-02 06:45:00,32.4,31.9,29.86,NNW,344,0.0,2.0,98,0.00,,,0.00,WeatherCatV1.23B16,2013-11-02 10:45:00,
2013-11-02 06:50:00,32.4,31.9,29.86,NNW,344,1.0,2.0,98,0.00,,,0.00,WeatherCatV1.23B16,2013-11-02 10:50:00,
2013-11-02 06:55:00,32.4,31.9,29.86,NNW,344,0.0,0.0,98,0.00,,,0.00,WeatherCatV1.23B16,2013-11-02 10:55:00,
2013-11-02 07:00:00,32.4,31.9,29.86,NNW,344,0.0,0.0,98,0.00,,,0.00,WeatherCatV1.23B16,2013-11-02 11:00:00,
2013-11-02 07:05:00,32.4,31.9,29.87,NNW,344,0.0,0.0,98,0.00,,,0.00,WeatherCatV1.23B16,2013-11-02 11:05:00,
2013-11-02 07:10:00,32.2,31.7,29.87,NNW,344,0.0,0.0,98,0.00,,,0.00,WeatherCatV1.23B16,2013-11-02 11:10:00,
2013-11-02 07:15:00,32.2,31.7,29.87,NNW,344,0.0,0.0,98,0.00,,,0.00,WeatherCatV1.23B16,2013-11-02 11:15:00,
2013-11-02 07:20:00,32.2,31.7,29.87,NNW,344,0.0,0.0,98,0.00,,,0.00,WeatherCatV1.23B16,2013-11-02 11:20:00,
2013-11-02 07:25:00,32.2,31.7,29.87,NNW,344,0.0,0.0,98,0.00,,,0.00,WeatherCatV1.23B16,2013-11-02 11:25:00,
2013-11-02 07:30:00,32.2,31.7,29.88,NNW,344,0.0,0.0,98,0.00,,,0.00,WeatherCatV1.23B16,2013-11-02 11:30:00,
2013-11-02 07:35:00,32.2,31.7,29.88,NNW,344,1.0,1.0,98,0.00,,,0.00,WeatherCatV1.23B16,2013-11-02 11:35:00,
2013-11-02 07:40:00,32.4,31.9,29.88,NW,320,1.0,3.0,98,0.00,,,0.00,WeatherCatV1.23B16,2013-11-02 11:40:00,
2013-11-02 07:45:00,32.4,31.9,29.88,NW,320,0.0,0.0,98,0.00,,,0.00,WeatherCatV1.23B16,2013-11-02 11:45:00,
2013-11-02 07:50:00,32.5,32.0,29.88,NW,320,0.0,0.0,98,0.00,,,0.00,WeatherCatV1.23B16,2013-11-02 11:50:00,
2013-11-02 07:55:00,32.7,32.2,29.89,NW,320,0.0,1.0,98,0.00,,,0.00,WeatherCatV1.23B16,2013-11-02 11:55:00,
2013-11-02 08:00:00,32.8,32.3,29.89,NW,320,0.0,0.0,98,0.00,,,0.00,WeatherCatV1.23B16,2013-11-02 12:00:00,
2013-11-02 08:05:00,32.8,32.3,29.89,NW,320,0.0,0.0,98,0.00,,,0.00,WeatherCatV1.23B16,2013-11-02 12:05:00,
2013-11-02 08:10:00,32.8,32.3,29.89,NW,320,0.0,3.0,98,0.00,,,0.00,WeatherCatV1.23B16,2013-11-02 12:10:00,
2013-11-02 08:15:00,32.8,32.3,29.90,NW,320,0.0,1.0,98,0.00,,,0.00,WeatherCatV1.23B16,2013-11-02 12:15:00,
2013-11-02 08:20:00,32.9,32.7,29.90,NW,320,0.0,0.0,99,0.00,,,0.00,WeatherCatV1.23B16,2013-11-02 12:20:00,
2013-11-02 08:25:00,33.2,33.0,29.90,NNW,336,0.0,0.0,99,0.00,,,0.00,WeatherCatV1.23B16,2013-11-02 12:25:00,
2013-11-02 08:30:00,33.5,33.2,29.90,North,9,0.0,4.0,99,0.00,,,0.00,WeatherCatV1.23B16,2013-11-02 12:30:00,
2013-11-02 08:35:00,33.8,33.5,29.91,North,9,0.0,3.0,99,0.00,,,0.00,WeatherCatV1.23B16,2013-11-02 12:35:00,
2013-11-02 08:40:00,34.0,33.8,29.91,North,350,0.0,3.0,99,0.00,,,0.00,WeatherCatV1.23B16,2013-11-02 12:40:00,
2013-11-02 08:45:00,34.1,33.8,29.91,NW,310,0.0,4.0,99,0.00,,,0.00,WeatherCatV1.23B16,2013-11-02 12:45:00,
2013-11-02 08:50:00,34.4,34.2,29.91,NW,313,0.0,0.0,99,0.00,,,0.00,WeatherCatV1.23B16,2013-11-02 12:50:00,
2013-11-02 08:55:00,34.6,34.3,29.91,NW,319,2.0,3.0,99,0.00,,,0.00,WeatherCatV1.23B16,2013-11-02 12:55:00,
2013-11-02 09:00:00,34.7,34.5,29.91,NW,319,0.0,0.0,99,0.00,,,0.00,WeatherCatV1.23B16,2013-11-02 13:00:00,
2013-11-02 09:05:00,34.9,34.7,29.92,NW,320,0.0,0.0,99,0.00,,,0.00,WeatherCatV1.23B16,2013-11-02 13:05:00,
2013-11-02 09:10:00,35.0,34.8,29.92,NW,319,0.0,1.0,99,0.00,,,0.00,WeatherCatV1.23B16,2013-11-02 13:10:00,
2013-11-02 09:15:00,35.2,35.0,29.92,NW,320,0.0,4.0,99,0.00,,,0.00,WeatherCatV1.23B16,2013-11-02 13:15:00,
2013-11-02 09:20:00,35.3,35.0,29.92,NW,320,1.0,1.0,99,0.00,,,0.00,WeatherCatV1.23B16,2013-11-02 13:20:00,
2013-11-02 09:25:00,35.3,35.0,29.93,NW,320,0.0,2.0,99,0.00,,,0.00,WeatherCatV1.23B16,2013-11-02 13:25:00,
2013-11-02 09:30:00,35.5,35.2,29.93,NW,320,1.0,3.0,99,0.00,,,0.00,WeatherCatV1.23B16,2013-11-02 13:30:00,
2013-11-02 09:35:00,35.5,35.2,29.93,North,355,2.0,5.0,99,0.00,,,0.00,WeatherCatV1.23B16,2013-11-02 13:35:00,
2013-11-02 09:40:00,35.6,35.3,29.93,North,0,0.0,2.0,99,0.00,,,0.00,WeatherCatV1.23B16,2013-11-02 13:40:00,
2013-11-02 09:45:00,35.6,35.3,29.94,North,0,0.0,0.0,99,0.00,,,0.00,WeatherCatV1.23B16,2013-11-02 13:45:00,
2013-11-02 09:50:00,35.8,35.5,29.94,North,349,1.0,4.0,99,0.00,,,0.00,WeatherCatV1.23B16,2013-11-02 13:50:00,
2013-11-02 09:55:00,35.8,35.5,29.94,North,350,0.0,0.0,99,0.00,,,0.00,WeatherCatV1.23B16,2013-11-02 13:55:00,
2013-11-02 10:00:00,35.8,35.5,29.94,North,350,0.0,0.0,99,0.00,,,0.00,WeatherCatV1.23B16,2013-11-02 14:00:00,
2013-11-02 10:05:00,35.9,35.7,29.94,North,349,0.0,1.0,99,0.00,,,0.00,WeatherCatV1.23B16,2013-11-02 14:05:00,
2013-11-02 10:10:00,36.2,36.0,29.94,North,350,0.0,0.0,99,0.00,,,0.00,WeatherCatV1.23B16,2013-11-02 14:10:00,
2013-11-02 10:15:00,36.3,36.0,29.95,North,350,1.0,3.0,99,0.00,,,0.00,WeatherCatV1.23B16,2013-11-02 14:15:00,
2013-11-02 10:20:00,36.5,36.2,29.94,North,350,0.0,2.0,99,0.00,,,0.00,WeatherCatV1.23B16,2013-11-02 14:20:00,
2013-11-02 10:25:00,36.6,36.3,29.94,North,350,2.0,2.0,99,0.00,,,0.00,WeatherCatV1.23B16,2013-11-02 14:25:00,
2013-11-02 10:30:00,37.2,36.9,29.95,NNW,347,1.0,3.0,99,0.00,,,0.00,WeatherCatV1.23B16,2013-11-02 14:30:00,
2013-11-02 10:35:00,37.9,37.6,29.95,NNE,17,1.0,6.0,99,0.00,,,0.00,WeatherCatV1.23B16,2013-11-02 14:35:00,
2013-11-02 10:40:00,37.9,37.6,29.95,NNW,329,4.0,4.0,99,0.00,,,0.00,WeatherCatV1.23B16,2013-11-02 14:40:00,
2013-11-02 10:45:00,38.2,37.9,29.95,NW,313,1.0,3.0,99,0.00,,,0.00,WeatherCatV1.23B16,2013-11-02 14:45:00,
2013-11-02 10:50:00,38.3,37.8,29.95,North,0,3.0,5.0,98,0.00,,,0.00,WeatherCatV1.23B16,2013-11-02 14:50:00,
2013-11-02 10:55:00,38.2,37.4,29.95,NNE,15,1.0,5.0,97,0.00,,,0.00,WeatherCatV1.23B16,2013-11-02 14:55:00,
2013-11-02 11:00:00,38.5,37.7,29.96,NNE,20,9.0,9.0,97,0.00,,,0.00,WeatherCatV1.23B16,2013-11-02 15:00:00,
2013-11-02 11:05:00,38.6,37.6,29.96,NNE,24,1.0,3.0,96,0.00,,,0.00,WeatherCatV1.23B16,2013-11-02 15:05:00,
2013-11-02 11:10:00,38.6,37.3,29.96,WNW,288,1.0,6.0,95,0.00,,,0.00,WeatherCatV1.23B16,2013-11-02 15:10:00,
2013-11-02 11:15:00,38.5,36.7,29.96,NNW,330,2.0,3.0,93,0.00,,,0.00,WeatherCatV1.23B16,2013-11-02 15:15:00,
2013-11-02 11:20:00,38.3,36.2,29.97,NNW,336,3.0,5.0,92,0.00,,,0.00,WeatherCatV1.23B16,2013-11-02 15:20:00,
2013-11-02 11:25:00,38.3,35.9,29.97,North,350,0.0,1.0,91,0.00,,,0.00,WeatherCatV1.23B16,2013-11-02 15:25:00,
2013-11-02 11:30:00,38.5,36.1,29.97,NE,40,4.0,7.0,91,0.00,,,0.00,WeatherCatV1.23B16,2013-11-02 15:30:00,
2013-11-02 11:35:00,38.9,35.9,29.97,NNW,346,0.0,4.0,89,0.00,,,0.00,WeatherCatV1.23B16,2013-11-02 15:35:00,
2013-11-02 11:40:00,39.9,36.3,29.97,NNW,332,2.0,6.0,87,0.00,,,0.00,WeatherCatV1.23B16,2013-11-02 15:40:00,
2013-11-02 11:45:00,40.3,35.9,29.97,NNE,12,3.0,5.0,84,0.00,,,0.00,WeatherCatV1.23B16,2013-11-02 15:45:00,
2013-11-02 11:55:00,40.3,34.3,29.97,NNW,346,6.0,12.0,79,0.00,,,0.00,WeatherCatV1.23B16,2013-11-02 15:55:00,
2013-11-02 12:00:00,40.2,33.6,29.98,NNE,20,3.0,11.0,77,0.00,,,0.00,WeatherCatV1.23B16,2013-11-02 16:00:00,
2013-11-02 12:05:00,40.3,34.0,29.98,NNW,334,2.0,11.0,78,0.00,,,0.00,WeatherCatV1.23B16,2013-11-02 16:05:00,
2013-11-02 12:10:00,40.6,34.0,29.98,NNW,345,3.0,6.0,77,0.00,,,0.00,WeatherCatV1.23B16,2013-11-02 16:10:00,
2013-11-02 12:15:00,40.6,34.3,29.98,North,355,1.0,3.0,78,0.00,,,0.00,WeatherCatV1.23B16,2013-11-02 16:15:00,
2013-11-02 12:20:00,41.1,35.1,29.98,North,0,6.0,11.0,79,0.00,,,0.00,WeatherCatV1.23B16,2013-11-02 16:20:00,
2013-11-02 12:25:00,41.5,34.8,29.98,NE,43,5.0,9.0,77,0.00,,,0.00,WeatherCatV1.23B16,2013-11-02 16:25:00,
2013-11-02 12:30:00,41.9,34.6,29.99,NNE,30,1.0,1.0,75,0.00,,,0.00,WeatherCatV1.23B16,2013-11-02 16:30:00,
2013-11-02 12:35:00,42.6,35.2,29.99,North,5,1.0,6.0,75,0.00,,,0.00,WeatherCatV1.23B16,2013-11-02 16:35:00,
2013-11-02 12:40:00,42.6,35.6,29.99,ENE,62,2.0,10.0,76,0.00,,,0.00,WeatherCatV1.23B16,2013-11-02 16:40:00,
2013-11-02 12:45:00,41.9,35.2,29.99,ENE,60,5.0,10.0,77,0.00,,,0.00,WeatherCatV1.23B16,2013-11-02 16:45:00,
2013-11-02 12:50:00,41.2,35.5,30.00,NW,309,2.0,5.0,80,0.00,,,0.00,WeatherCatV1.23B16,2013-11-02 16:50:00,
2013-11-02 12:55:00,41.1,36.0,30.00,North,355,1.0,1.0,82,0.00,,,0.00,WeatherCatV1.23B16,2013-11-02 16:55:00,
2013-11-02 13:00:00,40.8,35.7,30.00,North,351,4.0,7.0,82,0.00,,,0.00,WeatherCatV1.23B16,2013-11-02 17:00:00,
2013-11-02 13:05:00,40.8,35.7,29.99,NW,317,1.0,2.0,82,0.00,,,0.00,WeatherCatV1.23B16,2013-11-02 17:05:00,
2013-11-02 13:10:00,41.2,35.8,29.99,North,355,1.0,3.0,81,0.00,,,0.00,WeatherCatV1.23B16,2013-11-02 17:10:00,
2013-11-02 13:15:00,41.8,36.1,30.00,North,355,3.0,3.0,80,0.00,,,0.00,WeatherCatV1.23B16,2013-11-02 17:15:00,
2013-11-02 13:20:00,42.5,34.8,29.99,NE,35,2.0,6.0,74,0.00,,,0.00,WeatherCatV1.23B16,2013-11-02 17:20:00,
2013-11-02 13:25:00,42.9,35.5,29.99,NW,309,2.0,3.0,75,0.00,,,0.00,WeatherCatV1.23B16,2013-11-02 17:25:00,
2013-11-02 13:30:00,42.6,35.2,29.99,WNW,284,2.0,9.0,75,0.00,,,0.00,WeatherCatV1.23B16,2013-11-02 17:30:00,
2013-11-02 13:35:00,41.9,35.2,30.00,NW,310,2.0,10.0,77,0.00,,,0.00,WeatherCatV1.23B16,2013-11-02 17:35:00,
2013-11-02 13:40:00,41.3,35.3,30.00,NW,325,0.0,5.0,79,0.00,,,0.00,WeatherCatV1.23B16,2013-11-02 17:40:00,
2013-11-02 13:45:00,41.2,34.9,30.00,NNE,30,9.0,10.0,78,0.00,,,0.00,WeatherCatV1.23B16,2013-11-02 17:45:00,
2013-11-02 13:55:00,41.1,34.8,30.00,NE,46,2.0,4.0,78,0.00,,,0.00,WeatherCatV1.23B16,2013-11-02 17:55:00,
2013-11-02 14:05:00,41.1,33.8,30.00,ENE,58,0.0,1.0,75,0.00,,,0.00,WeatherCatV1.23B16,2013-11-02 18:05:00,
2013-11-02 14:10:00,40.9,32.6,30.00,North,355,3.0,3.0,72,0.00,,,0.00,WeatherCatV1.23B16,2013-11-02 18:10:00,
2013-11-02 14:15:00,40.8,32.5,30.00,NNE,28,0.0,4.0,72,0.00,,,0.00,WeatherCatV1.23B16,2013-11-02 18:15:00,
2013-11-02 14:20:00,41.5,33.5,30.00,NW,319,2.0,3.0,73,0.00,,,0.00,WeatherCatV1.23B16,2013-11-02 18:20:00,
2013-11-02 14:25:00,42.8,33.7,30.00,NW,319,0.0,0.0,70,0.00,,,0.00,WeatherCatV1.23B16,2013-11-02 18:25:00,
2013-11-02 14:30:00,43.3,34.2,30.00,NW,319,4.0,4.0,70,0.00,,,0.00,WeatherCatV1.23B16,2013-11-02 18:30:00,
2013-11-02 14:35:00,43.2,34.8,30.01,North,355,2.0,6.0,72,0.00,,,0.00,WeatherCatV1.23B16,2013-11-02 18:35:00,
2013-11-02 14:40:00,42.8,34.4,30.01,NE,43,8.0,9.0,72,0.00,,,0.00,WeatherCatV1.23B16,2013-11-02 18:40:00,
2013-11-02 14:45:00,42.3,34.6,30.02,NE,35,2.0,6.0,74,0.00,,,0.00,WeatherCatV1.23B16,2013-11-02 18:45:00,
2013-11-02 14:50:00,42.2,34.5,30.02,NNW,347,0.0,5.0,74,0.00,,,0.00,WeatherCatV1.23B16,2013-11-02 18:50:00,
2013-11-02 14:55:00,42.1,34.4,30.02,NNW,342,4.0,5.0,74,0.00,,,0.00,WeatherCatV1.23B16,2013-11-02 18:55:00,
2013-11-02 15:00:00,41.9,33.5,30.02,WNW,297,2.0,2.0,72,0.00,,,0.00,WeatherCatV1.23B16,2013-11-02 19:00:00,
2013-11-02 15:05:00,42.1,33.7,30.02,NNW,330,0.0,4.0,72,0.00,,,0.00,WeatherCatV1.23B16,2013-11-02 19:05:00,
2013-11-02 15:10:00,42.8,34.4,30.02,NNE,14,3.0,4.0,72,0.00,,,0.00,WeatherCatV1.23B16,2013-11-02 19:10:00,
2013-11-02 15:15:00,43.5,35.4,30.02,NNE,19,2.0,2.0,73,0.00,,,0.00,WeatherCatV1.23B16,2013-11-02 19:15:00,
2013-11-02 15:20:00,43.3,35.9,30.02,ENE,76,1.0,4.0,75,0.00,,,0.00,WeatherCatV1.23B16,2013-11-02 19:20:00,
2013-11-02 15:30:00,41.6,34.6,30.03,NNE,20,3.0,5.0,76,0.00,,,0.00,WeatherCatV1.23B16,2013-11-02 19:30:00,
2013-11-02 15:35:00,41.6,34.3,30.03,NNE,30,3.0,4.0,75,0.00,,,0.00,WeatherCatV1.23B16,2013-11-02 19:35:00,
2013-11-02 15:40:00,41.9,34.6,30.03,NNE,31,4.0,10.0,75,0.00,,,0.00,WeatherCatV1.23B16,2013-11-02 19:40:00,
2013-11-02 15:45:00,42.3,35.0,30.03,NNW,341,2.0,10.0,75,0.00,,,0.00,WeatherCatV1.23B16,2013-11-02 19:45:00,
2013-11-02 15:50:00,42.3,35.6,30.04,NNW,342,3.0,3.0,77,0.00,,,0.00,WeatherCatV1.23B16,2013-11-02 19:50:00,
2013-11-02 15:55:00,41.8,35.8,30.04,North,355,3.0,9.0,79,0.00,,,0.00,WeatherCatV1.23B16,2013-11-02 19:55:00,
2013-11-02 16:00:00,41.3,35.6,30.04,North,11,0.0,7.0,80,0.00,,,0.00,WeatherCatV1.23B16,2013-11-02 20:00:00,
2013-11-02 16:05:00,40.9,35.5,30.05,North,5,1.0,3.0,81,0.00,,,0.00,WeatherCatV1.23B16,2013-11-02 20:05:00,
2013-11-02 16:10:00,40.5,35.1,30.05,North,5,3.0,7.0,81,0.00,,,0.00,WeatherCatV1.23B16,2013-11-02 20:10:00,
2013-11-02 16:15:00,40.3,34.6,30.05,NNW,331,2.0,2.0,80,0.00,,,0.00,WeatherCatV1.23B16,2013-11-02 20:15:00,
2013-11-02 16:20:00,40.3,34.3,30.05,NNW,331,1.0,3.0,79,0.00,,,0.00,WeatherCatV1.23B16,2013-11-02 20:20:00,
2013-11-02 16:25:00,40.5,34.5,30.05,NNW,331,2.0,3.0,79,0.00,,,0.00,WeatherCatV1.23B16,2013-11-02 20:25:00,
2013-11-02 16:30:00,40.6,34.6,30.05,North,5,2.0,6.0,79,0.00,,,0.00,WeatherCatV1.23B16,2013-11-02 20:30:00,
2013-11-02 16:35:00,40.8,34.5,30.06,North,9,6.0,10.0,78,0.00,,,0.00,WeatherCatV1.23B16,2013-11-02 20:35:00,
2013-11-02 16:40:00,40.8,35.1,30.06,NW,307,0.0,1.0,80,0.00,,,0.00,WeatherCatV1.23B16,2013-11-02 20:40:00,
2013-11-02 16:45:00,40.6,35.5,30.06,North,5,2.0,4.0,82,0.00,,,0.00,WeatherCatV1.23B16,2013-11-02 20:45:00,
2013-11-02 16:50:00,40.5,35.5,30.06,NNW,339,1.0,1.0,82,0.00,,,0.00,WeatherCatV1.23B16,2013-11-02 20:50:00,
2013-11-02 16:55:00,40.1,35.0,30.07,NE,39,4.0,5.0,82,0.00,,,0.00,WeatherCatV1.23B16,2013-11-02 20:55:00,
2013-11-02 17:00:00,40.1,35.4,30.07,NNE,28,2.0,2.0,83,0.00,,,0.00,WeatherCatV1.23B16,2013-11-02 21:00:00,
2013-11-02 17:05:00,39.9,35.5,30.07,NE,39,1.0,2.0,84,0.00,,,0.00,WeatherCatV1.23B16,2013-11-02 21:05:00,
2013-11-02 17:10:00,39.9,35.5,30.07,North,5,2.0,6.0,84,0.00,,,0.00,WeatherCatV1.23B16,2013-11-02 21:10:00,
2013-11-02 17:15:00,39.6,34.6,30.07,North,9,1.0,5.0,82,0.00,,,0.00,WeatherCatV1.23B16,2013-11-02 21:15:00,
2013-11-02 17:20:00,39.5,34.2,30.07,North,5,1.0,7.0,81,0.00,,,0.00,WeatherCatV1.23B16,2013-11-02 21:20:00,
2013-11-02 17:25:00,39.5,34.2,30.08,North,355,0.0,3.0,81,0.00,,,0.00,WeatherCatV1.23B16,2013-11-02 21:25:00,
2013-11-02 17:30:00,39.3,33.7,30.08,NNE,12,3.0,11.0,80,0.00,,,0.00,WeatherCatV1.23B16,2013-11-02 21:30:00,
2013-11-02 17:35:00,39.2,33.9,30.08,North,5,2.0,7.0,81,0.00,,,0.00,WeatherCatV1.23B16,2013-11-02 21:35:00,
2013-11-02 17:40:00,39.1,33.8,30.08,North,10,0.0,3.0,81,0.00,,,0.00,WeatherCatV1.23B16,2013-11-02 21:40:00,
2013-11-02 17:45:00,39.1,33.8,30.08,NNE,13,5.0,5.0,81,0.00,,,0.00,WeatherCatV1.23B16,2013-11-02 21:45:00,
2013-11-02 17:50:00,38.9,33.9,30.09,NNE,13,0.0,2.0,82,0.00,,,0.00,WeatherCatV1.23B16,2013-11-02 21:50:00,
2013-11-02 17:55:00,38.8,33.8,30.09,NNE,14,3.0,3.0,82,0.00,,,0.00,WeatherCatV1.23B16,2013-11-02 21:55:00,
2013-11-02 18:00:00,38.5,33.5,30.09,North,5,0.0,2.0,82,0.00,,,0.00,WeatherCatV1.23B16,2013-11-02 22:00:00,
2013-11-02 18:05:00,38.3,33.3,30.09,North,5,1.0,2.0,82,0.00,,,0.00,WeatherCatV1.23B16,2013-11-02 22:05:00,
2013-11-02 18:10:00,38.2,33.5,30.10,North,5,0.0,5.0,83,0.00,,,0.00,WeatherCatV1.23B16,2013-11-02 22:10:00,
2013-11-02 18:15:00,38.2,33.5,30.10,NNE,12,2.0,4.0,83,0.00,,,0.00,WeatherCatV1.23B16,2013-11-02 22:15:00,
2013-11-02 18:20:00,37.9,33.5,30.10,NNE,17,3.0,4.0,84,0.00,,,0.00,WeatherCatV1.23B16,2013-11-02 22:20:00,
2013-11-02 18:25:00,37.6,33.2,30.10,NNE,17,0.0,2.0,84,0.00,,,0.00,WeatherCatV1.23B16,2013-11-02 22:25:00,
2013-11-02 18:30:00,37.6,33.5,30.10,NNE,17,0.0,1.0,85,0.00,,,0.00,WeatherCatV1.23B16,2013-11-02 22:30:00,
2013-11-02 18:35:00,37.5,33.7,30.10,NNE,17,0.0,0.0,86,0.00,,,0.00,WeatherCatV1.23B16,2013-11-02 22:35:00,
2013-11-02 18:40:00,37.3,33.5,30.10,NNE,17,0.0,0.0,86,0.00,,,0.00,WeatherCatV1.23B16,2013-11-02 22:40:00,
2013-11-02 18:45:00,37.2,33.4,30.10,NNE,17,0.0,1.0,86,0.00,,,0.00,WeatherCatV1.23B16,2013-11-02 22:45:00,
2013-11-02 18:50:00,37.0,33.5,30.11,NNE,17,0.0,0.0,87,0.00,,,0.00,WeatherCatV1.23B16,2013-11-02 22:50:00,
2013-11-02 18:55:00,36.9,33.4,30.11,NNE,17,0.0,0.0,87,0.00,,,0.00,WeatherCatV1.23B16,2013-11-02 22:55:00,
2013-11-02 19:00:00,36.9,33.4,30.11,NNE,17,0.0,0.0,87,0.00,,,0.00,WeatherCatV1.23B16,2013-11-02 23:00:00,
2013-11-02 19:05:00,36.8,33.3,30.11,NNE,17,0.0,0.0,87,0.00,,,0.00,WeatherCatV1.23B16,2013-11-02 23:05:00,
2013-11-02 19:10:00,36.6,33.4,30.11,NNE,17,0.0,0.0,88,0.00,,,0.00,WeatherCatV1.23B16,2013-11-02 23:10:00,
2013-11-02 19:15:00,36.3,33.1,30.12,NNE,17,0.0,0.0,88,0.00,,,0.00,WeatherCatV1.23B16,2013-11-02 23:15:00,
2013-11-02 19:20:00,36.2,33.0,30.12,NNE,17,0.0,0.0,88,0.00,,,0.00,WeatherCatV1.23B16,2013-11-02 23:20:00,
2013-11-02 19:25:00,36.0,32.8,30.12,NNE,17,0.0,0.0,88,0.00,,,0.00,WeatherCatV1.23B16,2013-11-02 23:25:00,
2013-11-02 19:30:00,36.0,33.1,30.13,NNE,17,0.0,0.0,89,0.00,,,0.00,WeatherCatV1.23B16,2013-11-02 23:30:00,
2013-11-02 19:35:00,35.9,33.0,30.13,NNE,17,0.0,0.0,89,0.00,,,0.00,WeatherCatV1.23B16,2013-11-02 23:35:00,
2013-11-02 19:40:00,35.9,33.3,30.13,NNE,17,0.0,0.0,90,0.00,,,0.00,WeatherCatV1.23B16,2013-11-02 23:40:00,
2013-11-02 19:45:00,35.9,33.3,30.13,NNE,17,0.0,0.0,90,0.00,,,0.00,WeatherCatV1.23B16,2013-11-02 23:45:00,
2013-11-02 19:50:00,35.8,33.2,30.13,NNE,17,0.0,0.0,90,0.00,,,0.00,WeatherCatV1.23B16,2013-11-02 23:50:00,
2013-11-02 19:55:00,35.6,33.0,30.13,NNE,17,0.0,0.0,90,0.00,,,0.00,WeatherCatV1.23B16,2013-11-02 23:55:00,
2013-11-02 20:00:00,35.5,32.9,30.13,NNE,17,0.0,0.0,90,0.00,,,0.00,WeatherCatV1.23B16,2013-11-03 00:00:00,
2013-11-02 20:05:00,35.3,32.7,30.13,NNE,17,0.0,0.0,90,0.00,,,0.00,WeatherCatV1.23B16,2013-11-03 00:05:00,
2013-11-02 20:10:00,35.2,32.8,30.14,NNE,17,0.0,0.0,91,0.00,,,0.00,WeatherCatV1.23B16,2013-11-03 00:10:00,
2013-11-02 20:15:00,35.0,32.6,30.14,NNE,17,0.0,0.0,91,0.00,,,0.00,WeatherCatV1.23B16,2013-11-03 00:15:00,
2013-11-02 20:20:00,34.9,32.5,30.14,NNE,17,0.0,0.0,91,0.00,,,0.00,WeatherCatV1.23B16,2013-11-03 00:20:00,
2013-11-02 20:25:00,34.7,32.3,30.14,NNE,17,0.0,0.0,91,0.00,,,0.00,WeatherCatV1.23B16,2013-11-03 00:25:00,
2013-11-02 20:30:00,34.6,32.2,30.14,NNE,17,0.0,0.0,91,0.00,,,0.00,WeatherCatV1.23B16,2013-11-03 00:30:00,
2013-11-02 20:35:00,34.4,32.0,30.15,NNE,17,0.0,0.0,91,0.00,,,0.00,WeatherCatV1.23B16,2013-11-03 00:35:00,
2013-11-02 20:40:00,34.3,32.2,30.15,NNE,17,0.0,0.0,92,0.00,,,0.00,WeatherCatV1.23B16,2013-11-03 00:40:00,
2013-11-02 20:45:00,34.1,32.0,30.15,NNE,17,0.0,0.0,92,0.00,,,0.00,WeatherCatV1.23B16,2013-11-03 00:45:00,
2013-11-02 20:50:00,34.1,32.0,30.15,NNE,17,0.0,0.0,92,0.00,,,0.00,WeatherCatV1.23B16,2013-11-03 00:50:00,
2013-11-02 20:55:00,34.0,31.9,30.15,NNE,17,0.0,0.0,92,0.00,,,0.00,WeatherCatV1.23B16,2013-11-03 00:55:00,
2013-11-02 21:00:00,34.0,31.9,30.15,NNE,17,0.0,0.0,92,0.00,,,0.00,WeatherCatV1.23B16,2013-11-03 01:00:00,
2013-11-02 21:05:00,33.8,31.7,30.15,NNE,17,0.0,0.0,92,0.00,,,0.00,WeatherCatV1.23B16,2013-11-03 01:05:00,
2013-11-02 21:10:00,33.7,31.6,30.15,NNE,17,0.0,0.0,92,0.00,,,0.00,WeatherCatV1.23B16,2013-11-03 01:10:00,
2013-11-02 21:15:00,33.5,31.4,30.15,NNE,17,0.0,0.0,92,0.00,,,0.00,WeatherCatV1.23B16,2013-11-03 01:15:00,
2013-11-02 21:20:00,33.4,31.3,30.16,NNE,17,0.0,0.0,92,0.00,,,0.00,WeatherCatV1.23B16,2013-11-03 01:20:00,
2013-11-02 21:25:00,33.4,31.6,30.16,NNE,17,0.0,0.0,93,0.00,,,0.00,WeatherCatV1.23B16,2013-11-03 01:25:00,
2013-11-02 21:30:00,33.2,31.4,30.16,NNE,17,0.0,0.0,93,0.00,,,0.00,WeatherCatV1.23B16,2013-11-03 01:30:00,
2013-11-02 21:35:00,33.1,31.3,30.16,NNE,17,0.0,0.0,93,0.00,,,0.00,WeatherCatV1.23B16,2013-11-03 01:35:00,
2013-11-02 21:40:00,32.9,31.1,30.16,NNE,17,0.0,0.0,93,0.00,,,0.00,WeatherCatV1.23B16,2013-11-03 01:40:00,
2013-11-02 21:45:00,32.8,31.0,30.16,NNE,17,0.0,0.0,93,0.00,,,0.00,WeatherCatV1.23B16,2013-11-03 01:45:00,
2013-11-02 21:50:00,32.7,30.9,30.16,NNE,17,0.0,0.0,93,0.00,,,0.00,WeatherCatV1.23B16,2013-11-03 01:50:00,
2013-11-02 21:55:00,32.7,30.9,30.17,NNE,17,0.0,0.0,93,0.00,,,0.00,WeatherCatV1.23B16,2013-11-03 01:55:00,
2013-11-02 22:00:00,32.5,31.0,30.17,NNE,17,0.0,0.0,94,0.00,,,0.00,WeatherCatV1.23B16,2013-11-03 02:00:00,
2013-11-02 22:05:00,32.7,31.2,30.16,NNE,17,0.0,0.0,94,0.00,,,0.00,WeatherCatV1.23B16,2013-11-03 02:05:00,
2013-11-02 22:10:00,32.7,31.2,30.17,NNE,17,0.0,0.0,94,0.00,,,0.00,WeatherCatV1.23B16,2013-11-03 02:10:00,
2013-11-02 22:15:00,32.7,31.2,30.17,NNE,17,0.0,0.0,94,0.00,,,0.00,WeatherCatV1.23B16,2013-11-03 02:15:00,
2013-11-02 22:20:00,32.7,31.2,30.17,NNE,17,0.0,0.0,94,0.00,,,0.00,WeatherCatV1.23B16,2013-11-03 02:20:00,
2013-11-02 22:25:00,32.8,31.5,30.17,NNE,17,0.0,1.0,95,0.00,,,0.00,WeatherCatV1.23B16,2013-11-03 02:25:00,
2013-11-02 22:30:00,32.9,31.6,30.17,NNE,17,0.0,1.0,95,0.00,,,0.00,WeatherCatV1.23B16,2013-11-03 02:30:00,
2013-11-02 22:35:00,33.1,31.8,30.17,NNE,17,0.0,3.0,95,0.00,,,0.00,WeatherCatV1.23B16,2013-11-03 02:35:00,
2013-11-02 22:40:00,33.1,31.8,30.18,NNE,17,0.0,0.0,95,0.00,,,0.00,WeatherCatV1.23B16,2013-11-03 02:40:00,
2013-11-02 22:45:00,33.1,31.8,30.18,NNE,17,0.0,0.0,95,0.00,,,0.00,WeatherCatV1.23B16,2013-11-03 02:45:00,
2013-11-02 22:50:00,33.1,31.8,30.18,NNE,17,0.0,0.0,95,0.00,,,0.00,WeatherCatV1.23B16,2013-11-03 02:50:00,
2013-11-02 22:55:00,33.1,31.8,30.18,NNE,17,0.0,0.0,95,0.00,,,0.00,WeatherCatV1.23B16,2013-11-03 02:55:00,
2013-11-02 23:00:00,33.1,31.8,30.18,NNE,17,0.0,0.0,95,0.00,,,0.00,WeatherCatV1.23B16,2013-11-03 03:00:00,
2013-11-02 23:05:00,33.1,31.8,30.18,NNE,17,0.0,0.0,95,0.00,,,0.00,WeatherCatV1.23B16,2013-11-03 03:05:00,
2013-11-02 23:10:00,32.9,31.6,30.19,NNE,17,0.0,0.0,95,0.00,,,0.00,WeatherCatV1.23B16,2013-11-03 03:10:00,
2013-11-02 23:15:00,32.9,31.6,30.19,NNE,17,0.0,0.0,95,0.00,,,0.00,WeatherCatV1.23B16,2013-11-03 03:15:00,
2013-11-02 23:20:00,33.1,31.8,30.19,NNE,17,0.0,0.0,95,0.00,,,0.00,WeatherCatV1.23B16,2013-11-03 03:20:00,
2013-11-02 23:25:00,33.1,31.8,30.20,NNE,17,0.0,0.0,95,0.00,,,0.00,WeatherCatV1.23B16,2013-11-03 03:25:00,
2013-11-02 23:30:00,33.2,31.9,30.20,NNE,17,0.0,0.0,95,0.00,,,0.00,WeatherCatV1.23B16,2013-11-03 03:30:00,
2013-11-02 23:35:00,33.2,31.9,30.19,NNE,17,0.0,0.0,95,0.00,,,0.00,WeatherCatV1.23B16,2013-11-03 03:35:00,
2013-11-02 23:40:00,33.2,31.9,30.19,NNE,17,0.0,0.0,95,0.00,,,0.00,WeatherCatV1.23B16,2013-11-03 03:40:00,
2013-11-02 23:45:00,33.2,31.9,30.19,NNE,17,0.0,0.0,95,0.00,,,0.00,WeatherCatV1.23B16,2013-11-03 03:45:00,
2013-11-02 23:50:00,33.2,31.9,30.19,NNE,17,0.0,0.0,95,0.00,,,0.00,WeatherCatV1.23B16,2013-11-03 03:50:00,
2013-11-02 23:55:00,33.2,32.2,30.19,NNE,17,0.0,0.0,96,0.00,,,0.00,WeatherCatV1.23B16,2013-11-03 03:55:00,